• Join FlightAware (Why Join?)
  • Login
  • US Flag 
01:43PM EDT


 

Airport Tracker/Info


-or-


 

Live Flight TrackerFlight Track Log ✈ EJA677P ✈ 11-Apr-2013 ✈ KLUK - KBCT

Flight Track Log - Related Links

Times and Time Zones

All times are in EDT time to prevent confusion due to time zone crossing. See the EJA677P flight status page for this flight to view local times or setup timezone preferences in your user account.

Time Position Orientation Groundspeed Altitude Reporting Facility
EDT Latitude Longitude Course Direction KTS MPH feet Rate Location/Type
09:05AM 39.1167 -84.3500 76° East 198 228 2,700  Level Cincinnati TRACON
09:06AM 39.0886 -84.3122 134° Southeast 201 231 4,200 1,260 Climbing Indianapolis Center
09:07AM 39.0308 -84.3358 198° South 245 282 5,000 1,260 Climbing Indianapolis Center
09:08AM 38.9656 -84.3681 201° Southwest 248 285 6,800 2,340 Climbing Indianapolis Center
09:09AM 38.9008 -84.3997 201° Southwest 247 284 9,900 2,820 Climbing Indianapolis Center
09:10AM 38.8203 -84.4425 202° Southwest 263 303 12,600 2,400 Climbing Indianapolis Center
09:11AM 38.7500 -84.4772 201° Southwest 267 307 14,900 2,160 Climbing Indianapolis Center
09:12AM 38.6836 -84.5078 200° South 255 293 17,100 1,800 Climbing Indianapolis Center
09:13AM 38.6050 -84.5078 180° South 272 313 18,600 1,260 Climbing Indianapolis Center
09:14AM 38.5219 -84.5039 178° South 295 339 19,700 1,200 Climbing Indianapolis Center
09:15AM 38.4333 -84.4992 178° South 313 360 21,100 1,380 Climbing Indianapolis Center
09:16AM 38.3433 -84.4942 178° South 322 371 22,600 1,440 Climbing Indianapolis Center
09:17AM 38.2531 -84.4889 177° South 324 373 24,100 1,440 Climbing Indianapolis Center
09:18AM 38.1603 -84.4644 168° South 342 394 25,600 1,500 Climbing Indianapolis Center
09:19AM 38.0528 -84.4308 166° South 339 390 27,200 1,380 Climbing Indianapolis Center
09:21AM 37.9594 -84.4003 166° South 345 397 28,500 1,080 Climbing Indianapolis Center
09:22AM 37.8628 -84.3703 166° South 353 406 29,500 960 Climbing Indianapolis Center
09:23AM 37.7647 -84.3383 166° South 360 414 30,600 1,200 Climbing Indianapolis Center
09:24AM 37.6661 -84.3089 167° South 363 418 32,000 1,140 Climbing Indianapolis Center
09:25AM 37.5706 -84.2778 166° South 354 407 33,000 480 Climbing Indianapolis Center
09:26AM 37.4506 -84.2386 165° South 379 436 33,000  Level Indianapolis Center
09:27AM 37.3428 -84.2036 166° South 396 456 33,000  Level Indianapolis Center
09:28AM 37.2319 -84.1706 167° South 406 467 33,000 240 Level Indianapolis Center
09:29AM 37.1200 -84.1342 165° South 414 476 33,500 960 Climbing Indianapolis Center
09:30AM 37.0147 -84.1028 167° South 395 455 35,000 1,440 Climbing Indianapolis Center
09:31AM 36.9128 -84.0711 166° South 380 437 36,500 1,560 Climbing Indianapolis Center
09:32AM 36.7992 -84.0347 166° South 364 419 38,200 1,560 Climbing Indianapolis Center
09:33AM 36.7047 -84.0056 166° South 354 407 39,700 1,200 Climbing Indianapolis Center
09:34AM 36.6111 -83.9769 166° South 347 399 40,800 600 Climbing Indianapolis Center
09:35AM 36.5147 -83.9472 166° South 352 405 41,000 60 Climbing Indianapolis Center
09:36AM 36.4108 -83.9158 166° South 374 430 41,000  Level Indianapolis Center
09:37AM 36.3017 -83.8819 166° South 396 456 41,000  Level Indianapolis Center
09:38AM 36.1917 -83.8508 167° South 399 459 41,000  Level Atlanta Center
09:39AM 36.0831 -83.8178 166° South 404 465 41,000  Level Atlanta Center
09:40AM 35.9808 -83.7872 166° South 394 453 41,000  Level Atlanta Center
09:41AM 35.8744 -83.7542 166° South 394 453 41,000  Level Atlanta Center
09:42AM 35.7700 -83.7214 166° South 394 453 41,000  Level Atlanta Center
09:43AM 35.6656 -83.6911 167° South 394 453 41,000  Level Atlanta Center
09:44AM 35.5611 -83.6583 166° South 394 453 41,000  Level Atlanta Center
09:45AM 35.4547 -83.6283 167° South 394 453 41,000  Level Atlanta Center
09:46AM 35.3419 -83.5933 166° South 394 453 41,000  Level Atlanta Center
09:47AM 35.2353 -83.5633 167° South 394 453 41,000  Level Atlanta Center
09:48AM 35.1414 -83.5358 167° South 394 453 41,000  Level Atlanta Center
09:49AM 35.0347 -83.5036 166° South 394 453 41,000  Level Atlanta Center
09:50AM 34.9283 -83.4739 167° South 394 453 41,000  Level Atlanta Center
09:51AM 34.8197 -83.4644 176° South 389 448 41,000  Level Atlanta Center
09:52AM 34.7092 -83.4575 177° South 394 453 41,000  Level Atlanta Center
09:53AM 34.5942 -83.4433 174° South 387 445 41,000  Level Atlanta Center
09:54AM 34.4814 -83.4339 176° South 387 445 41,000  Level Atlanta Center
09:55AM 34.3853 -83.4144 171° South 392 451 41,000  Level Atlanta Center
09:56AM 34.2767 -83.3803 165° South 392 451 41,000  Level Atlanta Center
09:57AM 34.1681 -83.3408 163° South 399 459 41,000  Level Atlanta Center
09:58AM 34.0592 -83.3067 165° South 399 459 41,000  Level Atlanta Center
09:59AM 33.9506 -83.2725 165° South 399 459 41,000 420 Level Atlanta Center
10:00AM 33.8333 -83.2336 165° South 394 453 41,900 480 Climbing Atlanta Center
10:01AM 33.7225 -83.2022 167° South 394 453 42,000  Climbing Atlanta Center
10:02AM 33.6117 -83.1658 165° South 405 466 42,000  Level Atlanta Center
10:03AM 33.4986 -83.1294 165° South 412 474 42,000  Level Atlanta Center
10:04AM 33.3856 -83.0933 165° South 423 487 42,000  Level Atlanta Center
10:05AM 33.2664 -83.0575 166° South 429 494 42,000  Level Atlanta Center
10:06AM 33.1533 -83.0192 164° South 429 494 42,000  Level Atlanta Center
10:07AM 33.0444 -82.9856 165° South 424 488 42,000  Level Atlanta Center
10:08AM 32.9400 -82.9497 164° South 417 480 42,000  Level Atlanta Center
10:09AM 32.8311 -82.9139 165° South 412 474 42,000  Level Atlanta Center
10:10AM 32.7181 -82.8808 166° South 412 474 42,000  Level Atlanta Center
10:11AM 32.6092 -82.8428 164° South 412 474 42,000 240 Level Atlanta Center
10:13AM 32.3439 -82.7597 165° South 418 481 43,000 240 Climbing Jacksonville Center
10:14AM 32.2292 -82.7231 165° South 411 473 43,000  Level Jacksonville Center
10:15AM 32.1164 -82.6889 166° South 411 473 43,000  Level Jacksonville Center
10:16AM 31.9992 -82.6500 164° South 422 486 43,000  Level Jacksonville Center
10:17AM 31.8864 -82.6283 171° South 427 491 43,000  Level Jacksonville Center
10:18AM 31.7758 -82.6189 176° South 415 478 43,000  Level Jacksonville Center
10:19AM 31.6567 -82.6119 177° South 415 478 43,000  Level Jacksonville Center
10:20AM 31.5439 -82.6050 177° South 420 483 43,000  Level Jacksonville Center
10:21AM 31.4167 -82.5956 176° South 420 483 43,000  Level Jacksonville Center
10:22AM 31.3164 -82.5911 178° South 420 483 43,000  Level Jacksonville Center
10:23AM 31.2017 -82.5867 178° South 420 483 43,000  Level Jacksonville Center
10:24AM 31.0889 -82.5772 176° South 420 483 43,000  Level Jacksonville Center
10:25AM 30.9739 -82.5703 177° South 420 483 43,000  Level Jacksonville Center
10:26AM 30.8592 -82.5633 177° South 420 483 43,000  Level Jacksonville Center
10:27AM 30.7442 -82.5567 177° South 420 483 43,000  Level Jacksonville Center
10:28AM 30.6294 -82.5472 176° South 420 483 43,000  Level Jacksonville Center
10:29AM 30.5167 -82.5406 177° South 420 483 43,000  Level Jacksonville Center
10:30AM 30.4017 -82.5336 177° South 420 483 43,000  Level Jacksonville Center
10:31AM 30.2889 -82.5244 176° South 420 483 43,000  Level Jacksonville Center
10:32AM 30.1761 -82.5178 177° South 415 478 43,000  Level Jacksonville Center
10:33AM 30.0633 -82.5111 177° South 415 478 43,000  Level Jacksonville Center
10:34AM 29.9528 -82.4994 175° South 409 471 43,000  Level Jacksonville Center
10:35AM 29.8378 -82.4928 177° South 404 465 43,000  Level Jacksonville Center
10:36AM 29.7250 -82.4836 176° South 404 465 43,000  Level Jacksonville Center
10:37AM 29.6103 -82.4769 177° South 404 465 43,000  Level Jacksonville Center
10:38AM 29.4956 -82.4703 177° South 404 465 43,000  Level Jacksonville Center
10:39AM 29.3847 -82.4636 177° South 404 465 43,000  Level Jacksonville Center
10:40AM 29.2678 -82.4569 177° South 404 465 43,000  Level Jacksonville Center
10:41AM 29.1550 -82.4481 176° South 409 471 43,000  Level Jacksonville Center
10:42AM 29.0403 -82.4414 177° South 409 471 43,000  Level Jacksonville Center
10:43AM 28.9275 -82.4228 172° South 409 471 43,000  Level Jacksonville Center
10:44AM 28.8128 -82.4092 174° South 414 476 43,000  Level Jacksonville Center
10:45AM 28.6978 -82.3931 173° South 414 476 43,000  Level Jacksonville Center
10:46AM 28.5706 -82.3797 175° South 414 476 43,000 -420 Level Jacksonville Center
10:47AM 28.4578 -82.3636 173° South 419 482 42,200 -1,260 Descending Jacksonville Center
10:48AM 28.3469 -82.3525 175° South 413 475 40,500 -1,980 Descending Jacksonville Center
10:51AM 28.0553 -82.3122 173° South 433 498 35,500 -1,620 Descending Miami Center
10:52AM 27.9417 -82.2808 166° South 438 504 35,000 -300 Descending Miami Center
10:53AM 27.8200 -82.2397 163° South 438 504 35,000  Level Miami Center
10:54AM 27.7172 -82.1997 161° South 437 503 35,000 -480 Level Miami Center
10:55AM 27.5833 -82.1514 162° South 449 517 34,100 -1,560 Descending Miami Center
10:56AM 27.4658 -82.1133 164° South 449 517 31,900 -2,280 Descending Miami Center
10:57AM 27.3483 -82.0728 163° South 449 517 29,600 -2,220 Descending Miami Center
10:58AM 27.2392 -82.0353 163° South 454 522 27,500 -2,520 Descending Miami Center
10:59AM 27.1050 -81.9919 164° South 449 517 24,600 -1,800 Descending Miami Center
11:00AM 26.9936 -81.9567 164° South 434 499 24,000 -720 Descending Miami Center
11:01AM 26.8889 -81.9056 156° South 422 486 23,200 -1,380 Descending Miami Center
11:02AM 26.8064 -81.8158 136° Southeast 406 467 21,300 -1,920 Descending Miami Center
11:03AM 26.7258 -81.7289 136° Southeast 406 467 19,400 -1,200 Descending Miami Center
11:04AM 26.6983 -81.6161 105° East 377 434 19,000 -240 Descending Miami Center
11:05AM 26.7208 -81.5008 78° East 354 407 19,000 -60 Level Miami Center
11:06AM 26.7494 -81.3858 74° East 366 421 18,900 -720 Descending Miami Center
11:07AM 26.7736 -81.2797 76° East 380 437 17,600 -1,500 Descending Miami Center
11:08AM 26.8228 -81.1744 62° Northeast 380 437 15,900 -1,920 Descending Miami Center
11:09AM 26.9081 -81.1078 35° Northeast 357 411 13,800 -2,400 Descending Miami Center
11:10AM 26.9950 -81.0667 23° Northeast 331 381 11,200 -2,040 Descending Miami Center
11:11AM 26.9744 -80.9819 105° East 252 290 9,800 -1,140 Descending Miami Center
11:12AM 26.9219 -80.9150 131° Southeast 264 304 9,000 -420 Descending Miami Center
11:13AM 26.8636 -80.8408 131° Southeast 283 326 9,000  Level Miami Center
11:14AM 26.8044 -80.7828 139° Southeast 283 326 9,000 -180 Level Miami Center
11:15AM 26.7264 -80.7383 153° Southeast 301 346 8,700 -600 Descending Miami Center
11:16AM 26.6717 -80.6808 137° Southeast 289 333 7,900 -780 Descending Miami Center
11:17AM 26.6208 -80.6258 136° Southeast 283 326 7,200 -1,380 Descending Miami Center
11:18AM 26.5808 -80.5503 121° Southeast 270 311 5,200 -1,500 Descending Miami Center
11:19AM 26.5492 -80.4864 119° Southeast 258 297 4,300 -840 Descending Miami Center
11:20AM 26.5114 -80.4133 120° Southeast 253 291 3,600 -1,080 Descending Miami Center
11:20AM 26.4972 -80.3944 130° Southeast 227 261 2,900 -1,500 Descending Miami Center
11:21AM 26.4789 -80.3661 126° Southeast 232 267 2,100 -900 Descending Miami Center
11:21AM 26.4650 -80.3425 123° Southeast 180 207 2,000 -120 Descending Miami Center
11:22AM 26.4389 -80.2953 122° Southeast 185 213 2,000 -300 Level Miami Center
11:23AM 26.4150 -80.2481 119° Southeast 166 191 1,500 -300 Descending Miami Center
11:24AM 26.3931 -80.2033 119° Southeast 154 177 1,500 -180 Level Miami Center
11:25AM 26.3667 -80.1703 132° Southeast 122 140 1,200 -360 Descending Miami Center
11:26AM 26.3547 -80.1419 115° Southeast 106 122 800 -420 Descending Miami Center
11:28AM 26.3667 -80.1000 180° South  Level FlightAware Approximate
11:35AM 26.3785 -80.1077 180° South  Level Estimated
11:36AM 26.3785 -80.1077 180° South  Level Estimated